sensor_id;sensor_type;location;lat;lon;timestamp;P1;durP1;ratioP1;P2;durP2;ratioP2
64595;SDS011;51003;51.628;6.670;2023-07-22T00:01:17;13.60;;;8.53;;
64595;SDS011;51003;51.628;6.670;2023-07-22T00:03:42;11.47;;;8.90;;
64595;SDS011;51003;51.628;6.670;2023-07-22T00:06:09;13.70;;;8.30;;
64595;SDS011;51003;51.628;6.670;2023-07-22T00:08:35;13.47;;;8.03;;
64595;SDS011;51003;51.628;6.670;2023-07-22T00:11:02;15.10;;;8.73;;
64595;SDS011;51003;51.628;6.670;2023-07-22T00:13:28;12.90;;;8.70;;
64595;SDS011;51003;51.628;6.670;2023-07-22T00:15:54;13.10;;;9.00;;
64595;SDS011;51003;51.628;6.670;2023-07-22T00:18:19;14.23;;;9.83;;
64595;SDS011;51003;51.628;6.670;2023-07-22T00:20:45;17.60;;;9.10;;
64595;SDS011;51003;51.628;6.670;2023-07-22T00:23:10;14.77;;;9.30;;
64595;SDS011;51003;51.628;6.670;2023-07-22T00:25:35;14.90;;;8.67;;
64595;SDS011;51003;51.628;6.670;2023-07-22T00:28:01;17.83;;;9.70;;
64595;SDS011;51003;51.628;6.670;2023-07-22T00:30:26;15.00;;;9.73;;
64595;SDS011;51003;51.628;6.670;2023-07-22T00:32:53;21.47;;;9.47;;
64595;SDS011;51003;51.628;6.670;2023-07-22T00:35:18;17.60;;;10.10;;
64595;SDS011;51003;51.628;6.670;2023-07-22T00:37:44;15.80;;;9.83;;
64595;SDS011;51003;51.628;6.670;2023-07-22T00:40:09;15.33;;;10.07;;
64595;SDS011;51003;51.628;6.670;2023-07-22T00:42:38;15.50;;;9.37;;
64595;SDS011;51003;51.628;6.670;2023-07-22T00:45:04;16.13;;;9.80;;
64595;SDS011;51003;51.628;6.670;2023-07-22T00:47:30;15.87;;;9.40;;
64595;SDS011;51003;51.628;6.670;2023-07-22T00:49:57;12.87;;;8.60;;
64595;SDS011;51003;51.628;6.670;2023-07-22T00:52:22;15.97;;;10.10;;
64595;SDS011;51003;51.628;6.670;2023-07-22T00:54:48;15.37;;;9.37;;
64595;SDS011;51003;51.628;6.670;2023-07-22T00:57:13;13.80;;;9.47;;
64595;SDS011;51003;51.628;6.670;2023-07-22T00:59:40;14.07;;;9.23;;
64595;SDS011;51003;51.628;6.670;2023-07-22T01:02:06;14.60;;;8.80;;
64595;SDS011;51003;51.628;6.670;2023-07-22T01:04:32;11.83;;;8.67;;
64595;SDS011;51003;51.628;6.670;2023-07-22T01:06:58;14.30;;;9.20;;
64595;SDS011;51003;51.628;6.670;2023-07-22T01:09:24;14.37;;;9.23;;
64595;SDS011;51003;51.628;6.670;2023-07-22T01:11:49;14.40;;;8.90;;
64595;SDS011;51003;51.628;6.670;2023-07-22T01:14:15;15.53;;;9.50;;
64595;SDS011;51003;51.628;6.670;2023-07-22T01:16:40;13.47;;;9.70;;
64595;SDS011;51003;51.628;6.670;2023-07-22T01:19:05;13.30;;;9.27;;
64595;SDS011;51003;51.628;6.670;2023-07-22T01:21:33;14.60;;;9.87;;
64595;SDS011;51003;51.628;6.670;2023-07-22T01:23:59;16.30;;;9.10;;
64595;SDS011;51003;51.628;6.670;2023-07-22T01:26:24;16.00;;;9.50;;
64595;SDS011;51003;51.628;6.670;2023-07-22T01:28:50;15.13;;;9.20;;
64595;SDS011;51003;51.628;6.670;2023-07-22T01:31:15;14.90;;;9.10;;
64595;SDS011;51003;51.628;6.670;2023-07-22T01:33:40;12.77;;;8.23;;
64595;SDS011;51003;51.628;6.670;2023-07-22T01:36:06;14.17;;;8.57;;
64595;SDS011;51003;51.628;6.670;2023-07-22T01:38:32;13.47;;;8.60;;
64595;SDS011;51003;51.628;6.670;2023-07-22T01:40:58;12.07;;;8.10;;
64595;SDS011;51003;51.628;6.670;2023-07-22T01:43:23;13.40;;;8.83;;
64595;SDS011;51003;51.628;6.670;2023-07-22T01:45:49;13.33;;;8.43;;
64595;SDS011;51003;51.628;6.670;2023-07-22T01:48:14;10.70;;;7.90;;
64595;SDS011;51003;51.628;6.670;2023-07-22T01:50:40;10.80;;;7.57;;
64595;SDS011;51003;51.628;6.670;2023-07-22T01:53:05;13.40;;;8.23;;
64595;SDS011;51003;51.628;6.670;2023-07-22T01:55:31;13.40;;;8.10;;
64595;SDS011;51003;51.628;6.670;2023-07-22T01:57:57;10.80;;;7.90;;
64595;SDS011;51003;51.628;6.670;2023-07-22T02:00:22;9.90;;;7.60;;
64595;SDS011;51003;51.628;6.670;2023-07-22T02:02:48;12.73;;;8.17;;
64595;SDS011;51003;51.628;6.670;2023-07-22T02:05:13;10.83;;;7.87;;
64595;SDS011;51003;51.628;6.670;2023-07-22T02:07:39;11.73;;;7.50;;
64595;SDS011;51003;51.628;6.670;2023-07-22T02:10:04;10.80;;;7.60;;
64595;SDS011;51003;51.628;6.670;2023-07-22T02:12:30;14.13;;;8.17;;
64595;SDS011;51003;51.628;6.670;2023-07-22T02:14:56;11.90;;;7.70;;
64595;SDS011;51003;51.628;6.670;2023-07-22T02:17:21;12.63;;;8.30;;
64595;SDS011;51003;51.628;6.670;2023-07-22T02:19:47;11.57;;;7.30;;
64595;SDS011;51003;51.628;6.670;2023-07-22T02:22:12;12.33;;;7.30;;
64595;SDS011;51003;51.628;6.670;2023-07-22T02:24:38;12.67;;;7.80;;
64595;SDS011;51003;51.628;6.670;2023-07-22T02:27:03;10.30;;;7.07;;
64595;SDS011;51003;51.628;6.670;2023-07-22T02:29:29;14.40;;;8.10;;
64595;SDS011;51003;51.628;6.670;2023-07-22T02:31:56;11.53;;;7.87;;
64595;SDS011;51003;51.628;6.670;2023-07-22T02:34:22;12.37;;;8.27;;
64595;SDS011;51003;51.628;6.670;2023-07-22T02:36:48;14.13;;;7.33;;
64595;SDS011;51003;51.628;6.670;2023-07-22T02:39:13;10.40;;;7.33;;
64595;SDS011;51003;51.628;6.670;2023-07-22T02:41:39;14.40;;;7.93;;
64595;SDS011;51003;51.628;6.670;2023-07-22T02:44:04;11.37;;;7.67;;
64595;SDS011;51003;51.628;6.670;2023-07-22T02:46:30;10.47;;;7.87;;
64595;SDS011;51003;51.628;6.670;2023-07-22T02:48:56;15.97;;;7.70;;
64595;SDS011;51003;51.628;6.670;2023-07-22T02:51:21;10.83;;;7.93;;
64595;SDS011;51003;51.628;6.670;2023-07-22T02:53:47;11.37;;;7.50;;
64595;SDS011;51003;51.628;6.670;2023-07-22T02:56:12;11.13;;;7.30;;
64595;SDS011;51003;51.628;6.670;2023-07-22T02:58:38;13.93;;;7.70;;
64595;SDS011;51003;51.628;6.670;2023-07-22T03:01:04;13.73;;;8.00;;
64595;SDS011;51003;51.628;6.670;2023-07-22T03:03:30;11.00;;;7.23;;
64595;SDS011;51003;51.628;6.670;2023-07-22T03:05:58;11.00;;;7.10;;
64595;SDS011;51003;51.628;6.670;2023-07-22T03:08:24;14.13;;;7.80;;
64595;SDS011;51003;51.628;6.670;2023-07-22T03:10:50;11.90;;;7.57;;
64595;SDS011;51003;51.628;6.670;2023-07-22T03:13:15;14.57;;;7.80;;
64595;SDS011;51003;51.628;6.670;2023-07-22T03:15:41;9.77;;;7.20;;
64595;SDS011;51003;51.628;6.670;2023-07-22T03:18:07;12.73;;;7.73;;
64595;SDS011;51003;51.628;6.670;2023-07-22T03:20:35;10.03;;;7.80;;
64595;SDS011;51003;51.628;6.670;2023-07-22T03:23:03;11.50;;;7.57;;
64595;SDS011;51003;51.628;6.670;2023-07-22T03:25:29;15.33;;;8.17;;
64595;SDS011;51003;51.628;6.670;2023-07-22T03:27:55;10.57;;;7.80;;
64595;SDS011;51003;51.628;6.670;2023-07-22T03:30:21;12.60;;;8.17;;
64595;SDS011;51003;51.628;6.670;2023-07-22T03:32:47;13.13;;;8.07;;
64595;SDS011;51003;51.628;6.670;2023-07-22T03:35:13;12.80;;;8.17;;
64595;SDS011;51003;51.628;6.670;2023-07-22T03:37:39;13.20;;;7.70;;
64595;SDS011;51003;51.628;6.670;2023-07-22T03:40:05;11.00;;;7.53;;
64595;SDS011;51003;51.628;6.670;2023-07-22T03:42:42;13.87;;;7.67;;
64595;SDS011;51003;51.628;6.670;2023-07-22T03:45:08;15.20;;;8.30;;
64595;SDS011;51003;51.628;6.670;2023-07-22T03:47:34;12.93;;;7.77;;
64595;SDS011;51003;51.628;6.670;2023-07-22T03:50:00;11.80;;;8.43;;
64595;SDS011;51003;51.628;6.670;2023-07-22T03:52:26;13.33;;;7.67;;
64595;SDS011;51003;51.628;6.670;2023-07-22T03:54:51;10.93;;;7.50;;
64595;SDS011;51003;51.628;6.670;2023-07-22T03:57:16;13.77;;;8.00;;
64595;SDS011;51003;51.628;6.670;2023-07-22T03:59:42;12.20;;;7.87;;
64595;SDS011;51003;51.628;6.670;2023-07-22T04:02:07;14.33;;;7.30;;
64595;SDS011;51003;51.628;6.670;2023-07-22T04:04:33;15.00;;;7.57;;
64595;SDS011;51003;51.628;6.670;2023-07-22T04:06:58;13.17;;;7.93;;
64595;SDS011;51003;51.628;6.670;2023-07-22T04:09:24;11.40;;;7.40;;
64595;SDS011;51003;51.628;6.670;2023-07-22T04:11:50;10.40;;;7.20;;
64595;SDS011;51003;51.628;6.670;2023-07-22T04:14:17;12.10;;;7.50;;
64595;SDS011;51003;51.628;6.670;2023-07-22T04:16:42;9.87;;;6.73;;
64595;SDS011;51003;51.628;6.670;2023-07-22T04:19:08;8.17;;;6.30;;
64595;SDS011;51003;51.628;6.670;2023-07-22T04:21:33;12.20;;;7.67;;
64595;SDS011;51003;51.628;6.670;2023-07-22T04:23:58;11.80;;;7.30;;
64595;SDS011;51003;51.628;6.670;2023-07-22T04:26:24;15.53;;;7.80;;
64595;SDS011;51003;51.628;6.670;2023-07-22T04:28:49;11.37;;;6.83;;
64595;SDS011;51003;51.628;6.670;2023-07-22T04:31:15;10.47;;;6.57;;
64595;SDS011;51003;51.628;6.670;2023-07-22T04:33:40;9.73;;;6.87;;
64595;SDS011;51003;51.628;6.670;2023-07-22T04:36:06;13.13;;;7.30;;
64595;SDS011;51003;51.628;6.670;2023-07-22T04:38:32;9.73;;;6.80;;
64595;SDS011;51003;51.628;6.670;2023-07-22T04:40:57;13.30;;;7.37;;
64595;SDS011;51003;51.628;6.670;2023-07-22T04:43:24;9.57;;;6.77;;
64595;SDS011;51003;51.628;6.670;2023-07-22T04:45:49;12.97;;;6.80;;
64595;SDS011;51003;51.628;6.670;2023-07-22T04:48:16;10.20;;;6.80;;
64595;SDS011;51003;51.628;6.670;2023-07-22T04:50:43;10.33;;;7.13;;
64595;SDS011;51003;51.628;6.670;2023-07-22T04:53:10;11.37;;;7.30;;
64595;SDS011;51003;51.628;6.670;2023-07-22T04:55:38;14.00;;;7.23;;
64595;SDS011;51003;51.628;6.670;2023-07-22T04:58:03;13.80;;;7.37;;
64595;SDS011;51003;51.628;6.670;2023-07-22T05:00:29;13.50;;;7.60;;
64595;SDS011;51003;51.628;6.670;2023-07-22T05:02:54;11.67;;;7.23;;
64595;SDS011;51003;51.628;6.670;2023-07-22T05:05:21;11.03;;;7.23;;
64595;SDS011;51003;51.628;6.670;2023-07-22T05:07:46;12.97;;;7.10;;
64595;SDS011;51003;51.628;6.670;2023-07-22T05:10:14;13.60;;;8.40;;
64595;SDS011;51003;51.628;6.670;2023-07-22T05:12:39;14.00;;;7.63;;
64595;SDS011;51003;51.628;6.670;2023-07-22T05:15:06;10.00;;;6.90;;
64595;SDS011;51003;51.628;6.670;2023-07-22T05:17:31;13.60;;;7.70;;
64595;SDS011;51003;51.628;6.670;2023-07-22T05:19:57;14.57;;;7.93;;
64595;SDS011;51003;51.628;6.670;2023-07-22T05:22:23;12.40;;;7.13;;
64595;SDS011;51003;51.628;6.670;2023-07-22T05:24:48;14.43;;;7.90;;
64595;SDS011;51003;51.628;6.670;2023-07-22T05:27:14;12.50;;;7.50;;
64595;SDS011;51003;51.628;6.670;2023-07-22T05:29:40;12.37;;;7.23;;
64595;SDS011;51003;51.628;6.670;2023-07-22T05:32:05;12.87;;;8.20;;
64595;SDS011;51003;51.628;6.670;2023-07-22T05:34:31;24.17;;;7.70;;
64595;SDS011;51003;51.628;6.670;2023-07-22T05:36:57;11.27;;;7.60;;
64595;SDS011;51003;51.628;6.670;2023-07-22T05:39:22;13.03;;;7.30;;
64595;SDS011;51003;51.628;6.670;2023-07-22T05:41:47;14.33;;;8.37;;
64595;SDS011;51003;51.628;6.670;2023-07-22T05:44:13;12.30;;;7.67;;
64595;SDS011;51003;51.628;6.670;2023-07-22T05:46:38;12.77;;;8.03;;
64595;SDS011;51003;51.628;6.670;2023-07-22T05:49:03;11.67;;;7.40;;
64595;SDS011;51003;51.628;6.670;2023-07-22T05:51:29;11.77;;;7.00;;
64595;SDS011;51003;51.628;6.670;2023-07-22T05:53:54;13.13;;;8.37;;
64595;SDS011;51003;51.628;6.670;2023-07-22T05:56:19;12.10;;;8.03;;
64595;SDS011;51003;51.628;6.670;2023-07-22T05:58:45;10.37;;;7.10;;
64595;SDS011;51003;51.628;6.670;2023-07-22T06:01:10;15.03;;;8.10;;
64595;SDS011;51003;51.628;6.670;2023-07-22T06:03:37;10.80;;;7.07;;
64595;SDS011;51003;51.628;6.670;2023-07-22T06:06:02;11.47;;;7.23;;
64595;SDS011;51003;51.628;6.670;2023-07-22T06:08:28;11.60;;;7.90;;
64595;SDS011;51003;51.628;6.670;2023-07-22T06:10:53;13.53;;;8.23;;
64595;SDS011;51003;51.628;6.670;2023-07-22T06:13:18;14.23;;;8.03;;
64595;SDS011;51003;51.628;6.670;2023-07-22T06:15:44;17.00;;;8.50;;
64595;SDS011;51003;51.628;6.670;2023-07-22T06:18:09;13.93;;;8.07;;
64595;SDS011;51003;51.628;6.670;2023-07-22T06:20:35;13.57;;;8.10;;
64595;SDS011;51003;51.628;6.670;2023-07-22T06:23:01;12.87;;;7.60;;
64595;SDS011;51003;51.628;6.670;2023-07-22T06:25:27;14.07;;;7.63;;
64595;SDS011;51003;51.628;6.670;2023-07-22T06:27:52;13.40;;;8.03;;
64595;SDS011;51003;51.628;6.670;2023-07-22T06:30:19;12.50;;;8.03;;
64595;SDS011;51003;51.628;6.670;2023-07-22T06:32:44;14.33;;;8.70;;
64595;SDS011;51003;51.628;6.670;2023-07-22T06:35:09;12.43;;;8.10;;
64595;SDS011;51003;51.628;6.670;2023-07-22T06:37:35;14.90;;;7.80;;
64595;SDS011;51003;51.628;6.670;2023-07-22T06:40:00;14.23;;;8.57;;
64595;SDS011;51003;51.628;6.670;2023-07-22T06:42:27;13.93;;;8.07;;
64595;SDS011;51003;51.628;6.670;2023-07-22T06:44:53;15.30;;;8.60;;
64595;SDS011;51003;51.628;6.670;2023-07-22T06:47:18;10.90;;;7.37;;
64595;SDS011;51003;51.628;6.670;2023-07-22T06:49:44;11.73;;;8.30;;
64595;SDS011;51003;51.628;6.670;2023-07-22T06:52:11;13.70;;;8.60;;
64595;SDS011;51003;51.628;6.670;2023-07-22T06:54:36;12.03;;;7.83;;
64595;SDS011;51003;51.628;6.670;2023-07-22T06:57:01;12.43;;;7.70;;
64595;SDS011;51003;51.628;6.670;2023-07-22T06:59:27;15.27;;;8.00;;
64595;SDS011;51003;51.628;6.670;2023-07-22T07:01:52;14.60;;;8.70;;
64595;SDS011;51003;51.628;6.670;2023-07-22T07:04:18;19.37;;;8.23;;
64595;SDS011;51003;51.628;6.670;2023-07-22T07:06:43;16.00;;;8.77;;
64595;SDS011;51003;51.628;6.670;2023-07-22T07:09:10;14.33;;;8.83;;
64595;SDS011;51003;51.628;6.670;2023-07-22T07:11:35;15.77;;;8.70;;
64595;SDS011;51003;51.628;6.670;2023-07-22T07:14:01;15.27;;;8.67;;
64595;SDS011;51003;51.628;6.670;2023-07-22T07:16:28;15.33;;;8.17;;
64595;SDS011;51003;51.628;6.670;2023-07-22T07:18:54;13.00;;;8.53;;
64595;SDS011;51003;51.628;6.670;2023-07-22T07:21:20;14.90;;;8.10;;
64595;SDS011;51003;51.628;6.670;2023-07-22T07:23:46;14.17;;;8.13;;
64595;SDS011;51003;51.628;6.670;2023-07-22T07:26:12;13.70;;;8.50;;
64595;SDS011;51003;51.628;6.670;2023-07-22T07:28:37;13.37;;;8.27;;
64595;SDS011;51003;51.628;6.670;2023-07-22T07:31:03;13.03;;;8.10;;
64595;SDS011;51003;51.628;6.670;2023-07-22T07:33:28;12.37;;;7.67;;
64595;SDS011;51003;51.628;6.670;2023-07-22T07:35:54;12.43;;;7.90;;
64595;SDS011;51003;51.628;6.670;2023-07-22T07:38:19;14.00;;;7.87;;
64595;SDS011;51003;51.628;6.670;2023-07-22T07:40:44;16.47;;;7.13;;
64595;SDS011;51003;51.628;6.670;2023-07-22T07:43:10;12.33;;;7.60;;
64595;SDS011;51003;51.628;6.670;2023-07-22T07:45:38;12.90;;;7.77;;
64595;SDS011;51003;51.628;6.670;2023-07-22T07:48:04;11.70;;;7.70;;
64595;SDS011;51003;51.628;6.670;2023-07-22T07:50:30;11.07;;;7.53;;
64595;SDS011;51003;51.628;6.670;2023-07-22T07:52:55;10.90;;;7.33;;
64595;SDS011;51003;51.628;6.670;2023-07-22T07:55:21;14.70;;;7.50;;
64595;SDS011;51003;51.628;6.670;2023-07-22T07:57:46;9.20;;;6.63;;
64595;SDS011;51003;51.628;6.670;2023-07-22T08:00:11;9.97;;;7.10;;
64595;SDS011;51003;51.628;6.670;2023-07-22T08:02:37;11.83;;;7.20;;
64595;SDS011;51003;51.628;6.670;2023-07-22T08:05:03;10.20;;;6.40;;
64595;SDS011;51003;51.628;6.670;2023-07-22T08:07:28;9.53;;;7.00;;
64595;SDS011;51003;51.628;6.670;2023-07-22T08:09:54;12.60;;;6.70;;
64595;SDS011;51003;51.628;6.670;2023-07-22T08:12:19;11.30;;;5.80;;
64595;SDS011;51003;51.628;6.670;2023-07-22T08:14:44;8.60;;;6.47;;
64595;SDS011;51003;51.628;6.670;2023-07-22T08:17:10;11.40;;;6.07;;
64595;SDS011;51003;51.628;6.670;2023-07-22T08:19:35;8.73;;;6.17;;
64595;SDS011;51003;51.628;6.670;2023-07-22T08:22:01;8.67;;;5.90;;
64595;SDS011;51003;51.628;6.670;2023-07-22T08:24:26;10.50;;;6.00;;
64595;SDS011;51003;51.628;6.670;2023-07-22T08:26:51;10.33;;;6.87;;
64595;SDS011;51003;51.628;6.670;2023-07-22T08:29:17;11.03;;;6.20;;
64595;SDS011;51003;51.628;6.670;2023-07-22T08:31:42;5.93;;;5.00;;
64595;SDS011;51003;51.628;6.670;2023-07-22T08:34:08;7.90;;;5.60;;
64595;SDS011;51003;51.628;6.670;2023-07-22T08:36:33;8.90;;;6.00;;
64595;SDS011;51003;51.628;6.670;2023-07-22T08:38:59;6.30;;;5.20;;
64595;SDS011;51003;51.628;6.670;2023-07-22T08:41:24;8.50;;;5.63;;
64595;SDS011;51003;51.628;6.670;2023-07-22T08:43:50;8.07;;;6.30;;
64595;SDS011;51003;51.628;6.670;2023-07-22T08:46:16;9.90;;;6.03;;
64595;SDS011;51003;51.628;6.670;2023-07-22T08:48:46;11.30;;;7.10;;
64595;SDS011;51003;51.628;6.670;2023-07-22T08:51:18;8.70;;;6.43;;
64595;SDS011;51003;51.628;6.670;2023-07-22T08:53:44;8.40;;;5.80;;
64595;SDS011;51003;51.628;6.670;2023-07-22T08:56:09;9.67;;;5.70;;
64595;SDS011;51003;51.628;6.670;2023-07-22T08:58:35;7.10;;;5.80;;
64595;SDS011;51003;51.628;6.670;2023-07-22T09:01:01;10.30;;;5.60;;
64595;SDS011;51003;51.628;6.670;2023-07-22T09:03:27;8.23;;;6.23;;
64595;SDS011;51003;51.628;6.670;2023-07-22T09:05:52;7.70;;;5.50;;
64595;SDS011;51003;51.628;6.670;2023-07-22T09:08:18;6.93;;;5.67;;
64595;SDS011;51003;51.628;6.670;2023-07-22T09:10:44;7.20;;;5.87;;
64595;SDS011;51003;51.628;6.670;2023-07-22T09:13:10;7.40;;;5.70;;
64595;SDS011;51003;51.628;6.670;2023-07-22T09:15:36;8.20;;;6.17;;
64595;SDS011;51003;51.628;6.670;2023-07-22T09:18:02;16.20;;;5.60;;
64595;SDS011;51003;51.628;6.670;2023-07-22T09:20:28;17.23;;;6.20;;
64595;SDS011;51003;51.628;6.670;2023-07-22T09:22:54;8.17;;;5.30;;
64595;SDS011;51003;51.628;6.670;2023-07-22T09:25:21;8.40;;;5.47;;
64595;SDS011;51003;51.628;6.670;2023-07-22T09:27:47;8.33;;;5.70;;
64595;SDS011;51003;51.628;6.670;2023-07-22T09:32:45;7.60;;;5.47;;
64595;SDS011;51003;51.628;6.670;2023-07-22T09:35:11;7.60;;;5.37;;
64595;SDS011;51003;51.628;6.670;2023-07-22T09:37:36;15.73;;;6.20;;
64595;SDS011;51003;51.628;6.670;2023-07-22T09:40:13;11.90;;;5.83;;
64595;SDS011;51003;51.628;6.670;2023-07-22T09:42:40;9.30;;;7.23;;
64595;SDS011;51003;51.628;6.670;2023-07-22T09:45:08;10.63;;;7.27;;
64595;SDS011;51003;51.628;6.670;2023-07-22T09:47:45;13.70;;;8.80;;
64595;SDS011;51003;51.628;6.670;2023-07-22T09:50:14;6.90;;;6.00;;
64595;SDS011;51003;51.628;6.670;2023-07-22T09:52:45;7.20;;;5.40;;
64595;SDS011;51003;51.628;6.670;2023-07-22T09:55:11;5.33;;;4.83;;
64595;SDS011;51003;51.628;6.670;2023-07-22T09:57:38;9.10;;;5.57;;
64595;SDS011;51003;51.628;6.670;2023-07-22T10:00:05;6.30;;;5.60;;
64595;SDS011;51003;51.628;6.670;2023-07-22T10:02:34;16.73;;;12.00;;
64595;SDS011;51003;51.628;6.670;2023-07-22T10:05:00;10.17;;;6.57;;
64595;SDS011;51003;51.628;6.670;2023-07-22T10:07:28;6.50;;;4.70;;
64595;SDS011;51003;51.628;6.670;2023-07-22T10:09:56;4.33;;;3.93;;
64595;SDS011;51003;51.628;6.670;2023-07-22T10:12:23;3.47;;;3.27;;
64595;SDS011;51003;51.628;6.670;2023-07-22T10:14:48;4.50;;;3.87;;
64595;SDS011;51003;51.628;6.670;2023-07-22T10:17:15;3.97;;;3.67;;
64595;SDS011;51003;51.628;6.670;2023-07-22T10:19:41;4.13;;;3.73;;
64595;SDS011;51003;51.628;6.670;2023-07-22T10:22:07;10.93;;;3.73;;
64595;SDS011;51003;51.628;6.670;2023-07-22T10:24:35;4.70;;;3.93;;
64595;SDS011;51003;51.628;6.670;2023-07-22T10:27:01;4.00;;;3.70;;
64595;SDS011;51003;51.628;6.670;2023-07-22T10:29:26;4.20;;;3.23;;
64595;SDS011;51003;51.628;6.670;2023-07-22T10:31:53;4.17;;;3.87;;
64595;SDS011;51003;51.628;6.670;2023-07-22T10:34:23;4.00;;;3.60;;
64595;SDS011;51003;51.628;6.670;2023-07-22T10:36:48;4.03;;;3.73;;
64595;SDS011;51003;51.628;6.670;2023-07-22T10:39:24;3.60;;;3.30;;
64595;SDS011;51003;51.628;6.670;2023-07-22T10:41:57;3.07;;;2.87;;
64595;SDS011;51003;51.628;6.670;2023-07-22T10:44:25;6.27;;;3.30;;
64595;SDS011;51003;51.628;6.670;2023-07-22T10:46:57;3.93;;;3.33;;
64595;SDS011;51003;51.628;6.670;2023-07-22T10:49:24;3.30;;;3.10;;
64595;SDS011;51003;51.628;6.670;2023-07-22T10:51:50;3.43;;;2.93;;
64595;SDS011;51003;51.628;6.670;2023-07-22T10:54:31;11.63;;;3.73;;
64595;SDS011;51003;51.628;6.670;2023-07-22T10:57:02;4.73;;;3.30;;
64595;SDS011;51003;51.628;6.670;2023-07-22T10:59:40;3.77;;;3.37;;
64595;SDS011;51003;51.628;6.670;2023-07-22T11:02:22;4.43;;;3.40;;
64595;SDS011;51003;51.628;6.670;2023-07-22T11:04:51;3.87;;;3.57;;
64595;SDS011;51003;51.628;6.670;2023-07-22T11:07:16;5.37;;;2.70;;
64595;SDS011;51003;51.628;6.670;2023-07-22T11:09:55;3.20;;;3.00;;
64595;SDS011;51003;51.628;6.670;2023-07-22T11:12:20;3.77;;;3.30;;
64595;SDS011;51003;51.628;6.670;2023-07-22T11:14:48;3.53;;;2.80;;
64595;SDS011;51003;51.628;6.670;2023-07-22T11:17:14;3.47;;;3.17;;
64595;SDS011;51003;51.628;6.670;2023-07-22T11:19:40;5.17;;;3.40;;
64595;SDS011;51003;51.628;6.670;2023-07-22T11:22:06;3.27;;;2.97;;
64595;SDS011;51003;51.628;6.670;2023-07-22T11:24:34;3.60;;;3.30;;
64595;SDS011;51003;51.628;6.670;2023-07-22T11:27:04;4.30;;;3.43;;
64595;SDS011;51003;51.628;6.670;2023-07-22T11:29:30;4.60;;;3.23;;
64595;SDS011;51003;51.628;6.670;2023-07-22T11:31:56;3.30;;;3.00;;
64595;SDS011;51003;51.628;6.670;2023-07-22T11:34:23;3.60;;;3.30;;
64595;SDS011;51003;51.628;6.670;2023-07-22T11:36:49;3.93;;;2.90;;
64595;SDS011;51003;51.628;6.670;2023-07-22T11:39:17;3.50;;;3.20;;
64595;SDS011;51003;51.628;6.670;2023-07-22T11:41:43;3.80;;;3.10;;
64595;SDS011;51003;51.628;6.670;2023-07-22T11:44:11;3.40;;;3.10;;
64595;SDS011;51003;51.628;6.670;2023-07-22T11:49:26;3.50;;;3.10;;
64595;SDS011;51003;51.628;6.670;2023-07-22T11:51:56;3.03;;;2.73;;
64595;SDS011;51003;51.628;6.670;2023-07-22T11:54:22;3.13;;;2.83;;
64595;SDS011;51003;51.628;6.670;2023-07-22T11:56:47;3.03;;;2.80;;
64595;SDS011;51003;51.628;6.670;2023-07-22T11:59:13;3.00;;;2.80;;
64595;SDS011;51003;51.628;6.670;2023-07-22T12:01:38;2.97;;;2.77;;
64595;SDS011;51003;51.628;6.670;2023-07-22T12:04:09;2.47;;;2.37;;
64595;SDS011;51003;51.628;6.670;2023-07-22T12:06:36;3.87;;;2.70;;
64595;SDS011;51003;51.628;6.670;2023-07-22T12:09:01;2.97;;;2.67;;
64595;SDS011;51003;51.628;6.670;2023-07-22T12:11:27;5.40;;;3.50;;
64595;SDS011;51003;51.628;6.670;2023-07-22T12:14:12;3.40;;;3.00;;
64595;SDS011;51003;51.628;6.670;2023-07-22T12:16:39;3.23;;;2.93;;
64595;SDS011;51003;51.628;6.670;2023-07-22T12:19:06;4.93;;;3.27;;
64595;SDS011;51003;51.628;6.670;2023-07-22T12:21:33;4.53;;;2.80;;
64595;SDS011;51003;51.628;6.670;2023-07-22T12:23:58;2.47;;;2.33;;
64595;SDS011;51003;51.628;6.670;2023-07-22T12:26:24;3.43;;;2.70;;
64595;SDS011;51003;51.628;6.670;2023-07-22T12:28:49;2.90;;;2.70;;
64595;SDS011;51003;51.628;6.670;2023-07-22T12:31:15;2.27;;;2.10;;
64595;SDS011;51003;51.628;6.670;2023-07-22T12:33:41;2.70;;;2.50;;
64595;SDS011;51003;51.628;6.670;2023-07-22T12:36:06;2.57;;;2.30;;
64595;SDS011;51003;51.628;6.670;2023-07-22T12:38:32;3.20;;;2.30;;
64595;SDS011;51003;51.628;6.670;2023-07-22T12:40:57;2.23;;;2.13;;
64595;SDS011;51003;51.628;6.670;2023-07-22T12:43:22;3.00;;;2.27;;
64595;SDS011;51003;51.628;6.670;2023-07-22T12:45:48;2.57;;;2.37;;
64595;SDS011;51003;51.628;6.670;2023-07-22T12:48:13;2.90;;;2.70;;
64595;SDS011;51003;51.628;6.670;2023-07-22T12:50:39;2.60;;;2.40;;
64595;SDS011;51003;51.628;6.670;2023-07-22T12:53:04;2.37;;;2.10;;
64595;SDS011;51003;51.628;6.670;2023-07-22T12:55:29;2.63;;;2.27;;
64595;SDS011;51003;51.628;6.670;2023-07-22T12:57:55;2.13;;;2.03;;
64595;SDS011;51003;51.628;6.670;2023-07-22T13:00:20;7.00;;;2.60;;
64595;SDS011;51003;51.628;6.670;2023-07-22T13:02:46;2.03;;;1.93;;
64595;SDS011;51003;51.628;6.670;2023-07-22T13:05:11;2.33;;;2.13;;
64595;SDS011;51003;51.628;6.670;2023-07-22T13:07:37;2.37;;;2.17;;
64595;SDS011;51003;51.628;6.670;2023-07-22T13:10:02;3.27;;;2.30;;
64595;SDS011;51003;51.628;6.670;2023-07-22T13:12:33;4.97;;;2.50;;
64595;SDS011;51003;51.628;6.670;2023-07-22T13:14:59;2.50;;;2.30;;
64595;SDS011;51003;51.628;6.670;2023-07-22T13:17:24;2.80;;;2.50;;
64595;SDS011;51003;51.628;6.670;2023-07-22T13:19:49;2.37;;;2.20;;
64595;SDS011;51003;51.628;6.670;2023-07-22T13:22:14;2.80;;;2.60;;
64595;SDS011;51003;51.628;6.670;2023-07-22T13:24:40;2.73;;;2.10;;
64595;SDS011;51003;51.628;6.670;2023-07-22T13:27:06;3.50;;;2.03;;
64595;SDS011;51003;51.628;6.670;2023-07-22T13:29:31;5.13;;;2.40;;
64595;SDS011;51003;51.628;6.670;2023-07-22T13:31:57;2.60;;;2.40;;
64595;SDS011;51003;51.628;6.670;2023-07-22T13:34:22;15.63;;;2.30;;
64595;SDS011;51003;51.628;6.670;2023-07-22T13:36:48;2.47;;;2.27;;
64595;SDS011;51003;51.628;6.670;2023-07-22T13:39:13;3.00;;;2.70;;
64595;SDS011;51003;51.628;6.670;2023-07-22T13:41:39;2.90;;;2.60;;
64595;SDS011;51003;51.628;6.670;2023-07-22T13:44:04;2.90;;;2.40;;
64595;SDS011;51003;51.628;6.670;2023-07-22T13:46:30;2.43;;;2.10;;
64595;SDS011;51003;51.628;6.670;2023-07-22T13:48:55;2.60;;;2.40;;
64595;SDS011;51003;51.628;6.670;2023-07-22T13:51:21;2.73;;;2.53;;
64595;SDS011;51003;51.628;6.670;2023-07-22T13:53:46;2.30;;;2.20;;
64595;SDS011;51003;51.628;6.670;2023-07-22T13:56:12;2.57;;;2.37;;
64595;SDS011;51003;51.628;6.670;2023-07-22T13:58:37;3.30;;;3.00;;
64595;SDS011;51003;51.628;6.670;2023-07-22T14:01:02;5.23;;;4.73;;
64595;SDS011;51003;51.628;6.670;2023-07-22T14:03:28;2.50;;;2.30;;
64595;SDS011;51003;51.628;6.670;2023-07-22T14:05:53;2.30;;;2.10;;
64595;SDS011;51003;51.628;6.670;2023-07-22T14:08:19;2.27;;;2.17;;
64595;SDS011;51003;51.628;6.670;2023-07-22T14:10:45;2.80;;;2.20;;
64595;SDS011;51003;51.628;6.670;2023-07-22T14:13:10;2.30;;;2.20;;
64595;SDS011;51003;51.628;6.670;2023-07-22T14:15:36;2.27;;;2.17;;
64595;SDS011;51003;51.628;6.670;2023-07-22T14:18:01;2.77;;;2.57;;
64595;SDS011;51003;51.628;6.670;2023-07-22T14:20:27;2.63;;;2.30;;
64595;SDS011;51003;51.628;6.670;2023-07-22T14:22:55;2.50;;;2.30;;
64595;SDS011;51003;51.628;6.670;2023-07-22T14:25:21;2.33;;;2.20;;
64595;SDS011;51003;51.628;6.670;2023-07-22T14:27:46;2.70;;;2.50;;
64595;SDS011;51003;51.628;6.670;2023-07-22T14:30:12;5.37;;;2.60;;
64595;SDS011;51003;51.628;6.670;2023-07-22T14:32:37;2.90;;;2.70;;
64595;SDS011;51003;51.628;6.670;2023-07-22T14:35:03;2.33;;;2.13;;
64595;SDS011;51003;51.628;6.670;2023-07-22T14:37:29;2.67;;;2.37;;
64595;SDS011;51003;51.628;6.670;2023-07-22T14:39:54;2.83;;;2.27;;